Time;durP1;ratioP1;P1;durP2;ratioP2;P2;SDS_P1;SDS_P2;PMS_P1;PMS_P2;Temp;Humidity;BMP_temperature;BMP_pressure;BME280_temperature;BME280_humidity;BME280_pressure;Samples;Min_cycle;Max_cycle;Signal;HPM_P1;HPM_P2
2022/07/12 00:01:31;;;;;;;3.97;3.58;;;15.00;99.90;;;;;;5044487;28;20437;-81
2022/07/12 00:03:57;;;;;;;5.30;4.10;;;14.90;99.90;;;;;;5013476;28;20101;-81
2022/07/12 00:06:23;;;;;;;4.00;3.63;;;14.90;99.90;;;;;;5010803;28;20080;-81
2022/07/12 00:08:48;;;;;;;5.22;4.25;;;14.90;99.90;;;;;;5014118;28;20396;-81
2022/07/12 00:11:14;;;;;;;4.88;3.47;;;14.80;99.90;;;;;;4994125;28;20170;-81
2022/07/12 00:13:40;;;;;;;4.95;3.92;;;14.80;99.90;;;;;;5027684;28;20048;-81
2022/07/12 00:16:06;;;;;;;4.60;3.90;;;14.70;99.90;;;;;;5020639;28;20048;-80
2022/07/12 00:18:31;;;;;;;4.95;3.65;;;14.70;99.90;;;;;;4996561;28;20053;-81
2022/07/12 00:20:57;;;;;;;4.20;3.80;;;14.70;99.90;;;;;;5029870;28;20479;-81
2022/07/12 00:23:23;;;;;;;5.82;3.97;;;14.60;99.90;;;;;;5011743;28;20053;-81
2022/07/12 00:25:49;;;;;;;5.43;3.97;;;14.60;99.90;;;;;;5030665;28;20052;-81
2022/07/12 00:28:15;;;;;;;4.38;3.90;;;14.60;99.90;;;;;;5030000;28;20044;-81
2022/07/12 00:30:41;;;;;;;5.40;4.32;;;14.60;99.90;;;;;;5030206;28;20542;-80
2022/07/12 00:33:08;;;;;;;4.28;3.42;;;14.50;99.90;;;;;;5028965;28;20755;-81
2022/07/12 00:35:34;;;;;;;4.18;3.60;;;14.50;99.90;;;;;;5021070;28;20048;-80
2022/07/12 00:38:00;;;;;;;4.28;3.72;;;14.50;99.90;;;;;;5044817;28;20099;-81
2022/07/12 00:40:26;;;;;;;3.58;3.28;;;14.50;99.90;;;;;;5009042;28;20492;-81
2022/07/12 00:42:51;;;;;;;4.85;3.15;;;14.40;99.90;;;;;;5023059;28;20045;-81
2022/07/12 00:45:17;;;;;;;3.95;3.55;;;14.40;99.90;;;;;;5005304;28;20054;-81
2022/07/12 00:47:49;;;;;;;4.97;4.38;;;14.30;99.90;;;;;;5005331;28;20160;-81
2022/07/12 00:50:17;;;;;;;4.00;3.60;;;14.30;99.90;;;;;;5014331;28;20053;-81
2022/07/12 00:52:44;;;;;;;4.85;3.70;;;14.30;99.90;;;;;;5021597;28;20075;-81
2022/07/12 00:55:11;;;;;;;4.30;3.80;;;14.30;99.90;;;;;;5024955;28;20179;-81
2022/07/12 00:57:38;;;;;;;4.57;3.80;;;14.30;99.90;;;;;;5039129;28;20114;-80
2022/07/12 01:00:07;;;;;;;4.38;3.92;;;14.30;99.90;;;;;;5029122;28;20042;-81
2022/07/12 01:02:34;;;;;;;8.00;4.63;;;14.30;99.90;;;;;;5021524;28;20176;-81
2022/07/12 01:05:00;;;;;;;6.63;3.90;;;14.20;99.90;;;;;;5021759;28;20060;-81
2022/07/12 01:07:26;;;;;;;4.47;3.58;;;14.20;99.90;;;;;;5023003;28;20046;-81
2022/07/12 01:09:53;;;;;;;6.43;3.97;;;14.10;99.90;;;;;;5005649;28;20087;-81
2022/07/12 01:12:20;;;;;;;5.63;4.10;;;14.10;99.90;;;;;;5022079;28;20053;-80
2022/07/12 01:14:47;;;;;;;5.30;3.85;;;14.10;99.90;;;;;;5005838;28;20408;-81
2022/07/12 01:17:13;;;;;;;3.50;2.92;;;14.00;99.90;;;;;;5004806;28;20057;-81
2022/07/12 01:19:40;;;;;;;3.50;3.20;;;14.00;99.90;;;;;;4989369;28;20064;-81
2022/07/12 01:22:11;;;;;;;3.83;3.40;;;13.90;99.90;;;;;;5024450;28;20167;-81
2022/07/12 01:24:37;;;;;;;15.52;4.35;;;13.90;99.90;;;;;;5022386;28;20120;-81
2022/07/12 01:27:07;;;;;;;28.15;5.53;;;13.90;99.90;;;;;;5024778;28;20056;-81
2022/07/12 01:29:32;;;;;;;51.35;6.07;;;13.90;99.90;;;;;;5006128;28;20113;-81
2022/07/12 01:32:24;;;;;;;40.67;5.32;;;13.90;99.90;;;;;;5005365;28;20045;-81
2022/07/12 01:34:55;;;;;;;44.45;5.20;;;13.90;99.90;;;;;;5007582;28;20052;-81
2022/07/12 01:37:23;;;;;;;15.20;4.32;;;13.90;99.90;;;;;;5022837;28;20132;-81
2022/07/12 01:39:52;;;;;;;15.70;3.75;;;13.90;99.90;;;;;;5007742;28;20060;-80
2022/07/12 01:42:19;;;;;;;44.88;4.38;;;13.80;99.90;;;;;;5037778;28;20057;-81
2022/07/12 01:44:44;;;;;;;54.88;5.40;;;13.80;99.90;;;;;;5038407;28;20101;-80
2022/07/12 01:47:11;;;;;;;35.42;4.85;;;13.80;99.90;;;;;;5025936;28;20049;-81
2022/07/12 01:49:37;;;;;;;54.05;6.20;;;13.80;99.90;;;;;;5025085;28;20056;-81
2022/07/12 01:52:04;;;;;;;62.42;5.10;;;13.80;99.90;;;;;;5042074;28;20048;-81
2022/07/12 01:54:29;;;;;;;64.50;5.78;;;13.80;99.90;;;;;;5007733;28;20040;-81
2022/07/12 01:56:55;;;;;;;44.72;4.65;;;13.70;99.90;;;;;;5023877;28;20514;-81
2022/07/12 01:59:22;;;;;;;27.45;3.90;;;13.70;99.90;;;;;;5020949;28;20048;-81
2022/07/12 02:01:48;;;;;;;12.05;2.95;;;13.70;99.90;;;;;;5013909;28;20049;-79
2022/07/12 02:04:18;;;;;;;41.65;4.22;;;13.70;99.90;;;;;;5024598;28;20041;-80
2022/07/12 02:06:47;;;;;;;25.40;3.78;;;13.70;99.90;;;;;;5033097;28;20052;-81
2022/07/12 02:09:14;;;;;;;2.80;2.20;;;13.60;99.90;;;;;;5013632;28;20052;-80
2022/07/12 02:11:40;;;;;;;14.63;2.72;;;13.60;99.90;;;;;;5008084;28;20151;-80
2022/07/12 02:14:07;;;;;;;4.60;2.35;;;13.60;99.90;;;;;;5028661;28;20116;-80
2022/07/12 02:16:33;;;;;;;12.20;2.60;;;13.60;99.90;;;;;;5023064;28;20157;-80
2022/07/12 02:18:58;;;;;;;20.40;3.20;;;13.60;99.90;;;;;;5026616;28;20131;-80
2022/07/12 02:21:25;;;;;;;9.00;2.65;;;13.50;99.90;;;;;;4990750;28;20049;-80
2022/07/12 02:23:50;;;;;;;10.10;2.72;;;13.50;99.90;;;;;;5009696;28;20412;-81
2022/07/12 02:26:16;;;;;;;5.75;2.30;;;13.40;99.90;;;;;;5025499;28;20059;-81
2022/07/12 02:28:42;;;;;;;3.88;2.40;;;13.40;99.90;;;;;;5014639;28;20507;-80
2022/07/12 02:31:08;;;;;;;2.80;2.20;;;13.30;99.90;;;;;;5017393;28;20092;-80
2022/07/12 02:33:35;;;;;;;4.25;2.50;;;13.30;99.90;;;;;;5024976;28;20470;-81
2022/07/12 02:36:01;;;;;;;3.15;2.75;;;13.30;99.90;;;;;;5043221;28;20056;-80
2022/07/12 02:38:27;;;;;;;3.88;3.13;;;13.30;99.90;;;;;;5026009;28;20522;-80
2022/07/12 02:40:53;;;;;;;6.22;2.75;;;13.30;99.90;;;;;;5024096;28;20091;-81
2022/07/12 02:43:28;;;;;;;24.17;3.40;;;13.30;99.90;;;;;;5042903;28;20053;-80
2022/07/12 02:46:02;;;;;;;6.03;3.00;;;13.20;99.90;;;;;;5040217;28;20124;-80
2022/07/12 02:48:29;;;;;;;6.80;3.00;;;13.20;99.90;;;;;;5040927;28;20040;-79
2022/07/12 02:50:55;;;;;;;9.00;3.10;;;13.20;99.90;;;;;;5023144;28;20099;-79
2022/07/12 02:53:21;;;;;;;14.18;3.33;;;13.20;99.90;;;;;;5006454;28;20080;-79
2022/07/12 02:55:47;;;;;;;3.75;3.00;;;13.20;99.90;;;;;;5023049;28;20044;-78
2022/07/12 02:58:13;;;;;;;5.88;3.33;;;13.20;99.90;;;;;;5022866;28;20051;-80
2022/07/12 03:00:38;;;;;;;31.83;4.60;;;13.20;99.90;;;;;;5023341;28;20052;-80
2022/07/12 03:03:07;;;;;;;11.65;3.78;;;13.20;99.90;;;;;;5007270;28;20055;-79
2022/07/12 03:05:34;;;;;;;18.30;3.95;;;13.20;99.90;;;;;;5037069;28;20048;-80
2022/07/12 03:08:00;;;;;;;41.55;4.60;;;13.20;99.90;;;;;;5041465;28;20126;-80
2022/07/12 03:10:26;;;;;;;9.93;3.42;;;13.20;99.90;;;;;;5005287;28;20044;-80
2022/07/12 03:12:52;;;;;;;14.05;3.10;;;13.20;99.90;;;;;;5008104;28;20055;-80
2022/07/12 03:15:17;;;;;;;11.43;3.20;;;13.20;99.90;;;;;;5007728;28;20049;-80
2022/07/12 03:17:43;;;;;;;37.38;4.13;;;13.20;99.90;;;;;;5008247;28;20056;-79
2022/07/12 03:20:11;;;;;;;29.98;3.90;;;13.20;99.90;;;;;;5004115;28;20056;-79
2022/07/12 03:22:37;;;;;;;10.63;3.58;;;13.20;99.90;;;;;;5023053;28;20048;-80
2022/07/12 03:25:04;;;;;;;21.80;3.53;;;13.20;99.90;;;;;;5015154;28;20041;-79
2022/07/12 03:27:31;;;;;;;21.92;3.72;;;13.10;99.90;;;;;;5006902;28;20049;-79
2022/07/12 03:29:57;;;;;;;22.50;3.20;;;13.20;99.90;;;;;;5023328;28;20102;-79
2022/07/12 03:32:23;;;;;;;12.25;3.08;;;13.20;99.90;;;;;;5025508;28;20055;-79
2022/07/12 03:34:49;;;;;;;9.43;2.63;;;13.10;99.90;;;;;;5008386;28;20053;-79
2022/07/12 03:37:15;;;;;;;24.73;3.22;;;13.10;99.90;;;;;;5009695;28;20856;-79
2022/07/12 03:39:40;;;;;;;20.50;2.72;;;13.10;99.90;;;;;;5023525;28;20403;-78
2022/07/12 03:42:06;;;;;;;10.48;2.30;;;13.10;99.90;;;;;;5040439;28;20411;-81
2022/07/12 03:44:33;;;;;;;10.88;2.42;;;13.10;99.90;;;;;;5020917;28;20099;-81
2022/07/12 03:46:59;;;;;;;15.45;2.92;;;13.10;99.90;;;;;;5041559;28;20453;-80
2022/07/12 03:49:25;;;;;;;5.90;2.30;;;13.10;99.90;;;;;;5040624;28;20128;-81
2022/07/12 03:51:51;;;;;;;2.92;2.10;;;13.00;99.90;;;;;;5006808;28;20132;-81
2022/07/12 03:54:17;;;;;;;5.95;2.10;;;13.10;99.90;;;;;;5023658;28;20048;-79
2022/07/12 03:59:27;;;;;;;3.42;1.98;;;13.00;99.90;;;;;;5026711;28;20052;-79
2022/07/12 04:01:53;;;;;;;3.22;2.28;;;13.00;99.90;;;;;;5041238;28;20105;-80
2022/07/12 04:04:18;;;;;;;3.42;2.40;;;13.10;99.90;;;;;;5009698;28;20534;-80
2022/07/12 04:06:44;;;;;;;3.30;2.30;;;13.10;99.90;;;;;;5022454;28;20044;-80
2022/07/12 04:09:11;;;;;;;3.60;2.38;;;13.10;99.90;;;;;;5025030;28;20056;-80
2022/07/12 04:11:36;;;;;;;3.45;2.60;;;13.20;99.90;;;;;;5040250;28;20099;-80
2022/07/12 04:14:02;;;;;;;3.13;2.50;;;13.20;99.90;;;;;;5008302;28;20439;-79
2022/07/12 04:16:29;;;;;;;3.17;2.55;;;13.20;99.90;;;;;;5027721;28;20547;-80
2022/07/12 04:18:55;;;;;;;3.97;3.03;;;13.20;99.90;;;;;;5043228;28;20521;-80
2022/07/12 04:21:21;;;;;;;3.38;2.60;;;13.30;99.90;;;;;;5025532;28;20048;-81
2022/07/12 04:23:47;;;;;;;3.88;3.00;;;13.30;99.90;;;;;;5025291;28;20047;-80
2022/07/12 04:26:13;;;;;;;5.20;3.00;;;13.30;99.90;;;;;;5024834;28;20498;-80
2022/07/12 04:28:39;;;;;;;2.90;2.45;;;13.30;99.90;;;;;;5027607;28;20044;-80
2022/07/12 04:31:06;;;;;;;4.63;3.08;;;13.40;99.90;;;;;;5025797;28;20041;-80
2022/07/12 04:33:33;;;;;;;3.72;3.00;;;13.40;99.90;;;;;;4994258;28;20557;-81
2022/07/12 04:35:59;;;;;;;4.10;3.03;;;13.40;99.90;;;;;;5025284;28;20045;-81
2022/07/12 04:38:25;;;;;;;3.97;3.05;;;13.40;99.90;;;;;;5009967;28;20059;-81
2022/07/12 04:40:51;;;;;;;4.65;3.05;;;13.50;99.90;;;;;;5025887;28;20055;-80
2022/07/12 04:43:17;;;;;;;5.70;3.75;;;13.50;99.90;;;;;;5024800;28;20044;-81
2022/07/12 04:45:44;;;;;;;4.10;3.40;;;13.60;99.90;;;;;;5032819;28;20090;-81
2022/07/12 04:48:12;;;;;;;4.03;3.63;;;13.60;99.90;;;;;;5010345;28;20040;-80
2022/07/12 04:50:39;;;;;;;4.20;3.28;;;13.70;99.90;;;;;;5017639;28;20525;-81
2022/07/12 04:53:05;;;;;;;6.40;3.35;;;13.70;99.90;;;;;;5024906;28;20041;-79
2022/07/12 04:55:30;;;;;;;4.43;3.22;;;13.70;99.90;;;;;;5004975;28;20514;-80
2022/07/12 04:57:56;;;;;;;4.00;3.45;;;13.80;99.90;;;;;;5008395;28;20052;-80
2022/07/12 05:00:22;;;;;;;4.15;3.38;;;13.80;99.90;;;;;;5024591;28;20063;-80
2022/07/12 05:02:48;;;;;;;4.35;3.42;;;13.90;99.90;;;;;;5024572;28;20132;-80
2022/07/12 05:05:14;;;;;;;4.53;3.20;;;13.90;99.90;;;;;;5026210;28;20131;-81
2022/07/12 05:07:40;;;;;;;5.05;3.35;;;14.00;99.90;;;;;;5006939;28;20052;-80
2022/07/12 05:10:06;;;;;;;5.32;3.80;;;14.00;99.90;;;;;;5025602;28;20049;-81
2022/07/12 05:12:34;;;;;;;6.72;3.58;;;14.10;99.90;;;;;;5009132;28;20056;-81
2022/07/12 05:15:00;;;;;;;4.22;3.40;;;14.10;99.90;;;;;;5025725;28;20772;-82
2022/07/12 05:17:26;;;;;;;4.28;3.38;;;14.20;99.90;;;;;;5024354;28;20063;-82
2022/07/12 05:19:51;;;;;;;6.55;3.55;;;14.20;99.90;;;;;;5009283;28;20091;-81
2022/07/12 05:22:17;;;;;;;6.15;4.30;;;14.30;99.90;;;;;;4992318;28;20052;-81
2022/07/12 05:24:43;;;;;;;5.10;4.10;;;14.30;99.90;;;;;;5025928;28;20052;-81
2022/07/12 05:27:09;;;;;;;5.35;3.88;;;14.40;99.90;;;;;;5020559;28;20075;-81
2022/07/12 05:29:35;;;;;;;5.47;3.95;;;14.40;99.90;;;;;;5024322;28;20048;-80
2022/07/12 05:32:01;;;;;;;5.68;4.38;;;14.50;99.90;;;;;;5025868;28;20101;-81
2022/07/12 05:34:28;;;;;;;5.95;4.43;;;14.50;99.90;;;;;;5024694;28;20048;-81
2022/07/12 05:36:54;;;;;;;5.35;4.68;;;14.60;99.90;;;;;;5024510;28;20071;-81
2022/07/12 05:39:20;;;;;;;6.43;4.90;;;14.70;99.90;;;;;;5023911;28;20052;-80
2022/07/12 05:41:49;;;;;;;7.03;5.00;;;14.80;99.90;;;;;;5009578;28;20072;-82
2022/07/12 05:44:18;;;;;;;6.75;5.50;;;15.30;99.90;;;;;;5023747;28;20076;-83
2022/07/12 05:46:45;;;;;;;6.85;5.35;;;15.10;99.90;;;;;;5022172;28;20040;-83
2022/07/12 05:49:12;;;;;;;5.63;4.45;;;15.20;99.90;;;;;;5031061;28;20396;-83
2022/07/12 05:54:27;;;;;;;6.55;5.68;;;15.50;99.90;;;;;;4998986;28;20102;-83
2022/07/12 05:56:52;;;;;;;6.75;5.82;;;15.60;99.90;;;;;;5007421;28;20053;-82
2022/07/12 05:59:18;;;;;;;7.38;5.97;;;15.80;99.90;;;;;;5023087;28;20095;-81
2022/07/12 06:01:44;;;;;;;6.85;6.15;;;16.00;99.90;;;;;;5023838;28;20056;-80
2022/07/12 06:04:10;;;;;;;6.90;5.60;;;16.10;99.90;;;;;;5007010;28;20048;-82
2022/07/12 06:06:36;;;;;;;6.55;5.88;;;16.30;99.90;;;;;;5025135;28;20111;-80
2022/07/12 06:09:03;;;;;;;7.55;6.10;;;16.50;99.90;;;;;;5024130;28;20041;-81
2022/07/12 06:11:29;;;;;;;6.10;5.50;;;16.70;99.90;;;;;;5022654;28;20055;-83
2022/07/12 06:13:55;;;;;;;7.13;6.10;;;16.90;99.90;;;;;;5024169;28;20041;-86
2022/07/12 06:16:22;;;;;;;7.30;5.65;;;17.20;99.90;;;;;;5043265;28;20157;-85
2022/07/12 06:18:47;;;;;;;9.40;5.65;;;17.40;99.90;;;;;;5024255;28;20041;-84
2022/07/12 06:21:13;;;;;;;7.55;5.63;;;17.60;99.90;;;;;;5013309;28;20044;-85
2022/07/12 06:23:41;;;;;;;6.95;6.03;;;17.70;99.90;;;;;;5022431;28;20090;-83
2022/07/12 06:26:07;;;;;;;6.15;5.53;;;17.90;99.90;;;;;;5025140;28;20559;-84
2022/07/12 06:28:33;;;;;;;5.82;5.30;;;17.40;99.90;;;;;;5025487;28;20172;-84
2022/07/12 06:31:00;;;;;;;5.63;5.13;;;18.10;99.90;;;;;;5016736;28;20040;-83
2022/07/12 06:33:26;;;;;;;5.90;5.15;;;18.20;99.90;;;;;;5023380;28;20357;-83
2022/07/12 06:35:52;;;;;;;5.82;5.25;;;18.30;99.90;;;;;;5020542;28;20502;-82
2022/07/12 06:38:18;;;;;;;6.75;4.90;;;18.40;99.90;;;;;;5014792;28;20053;-83
2022/07/12 06:40:43;;;;;;;5.57;5.00;;;18.50;99.90;;;;;;5023539;28;20518;-84
2022/07/12 06:43:10;;;;;;;5.45;4.43;;;18.50;99.90;;;;;;5026128;28;20391;-84
2022/07/12 06:45:36;;;;;;;5.50;4.80;;;18.60;99.90;;;;;;5025127;28;20086;-85
2022/07/12 06:48:02;;;;;;;6.15;4.93;;;17.80;99.90;;;;;;5025395;28;20119;-83
2022/07/12 06:50:28;;;;;;;5.53;4.93;;;18.60;99.90;;;;;;5042323;28;20052;-85
2022/07/12 06:52:57;;;;;;;5.25;4.75;;;18.70;99.90;;;;;;5011459;28;20052;-84
2022/07/12 06:55:23;;;;;;;8.00;5.70;;;18.70;99.90;;;;;;5027033;28;20503;-84
2022/07/12 06:57:49;;;;;;;5.40;4.90;;;18.80;99.90;;;;;;5024552;28;20048;-83
2022/07/12 07:00:15;;;;;;;5.13;4.55;;;18.80;99.90;;;;;;5025815;28;20068;-84
2022/07/12 07:02:41;;;;;;;5.20;4.70;;;18.80;99.90;;;;;;5022800;28;20503;-83
2022/07/12 07:05:08;;;;;;;6.40;4.70;;;18.90;99.90;;;;;;5020226;28;20048;-84
2022/07/12 07:07:33;;;;;;;4.93;4.45;;;19.00;99.90;;;;;;5009985;28;20133;-85
2022/07/12 07:10:02;;;;;;;5.10;4.60;;;19.20;99.90;;;;;;5025066;28;20871;-84
2022/07/12 07:12:28;;;;;;;4.72;4.28;;;19.20;99.90;;;;;;5032038;28;20044;-85
2022/07/12 07:14:54;;;;;;;5.63;4.70;;;19.40;99.90;;;;;;5031599;28;20048;-84
2022/07/12 07:17:20;;;;;;;5.28;4.78;;;19.40;99.90;;;;;;5004323;28;20175;-85
2022/07/12 07:19:46;;;;;;;5.88;4.22;;;19.50;99.90;;;;;;4991529;28;20073;-85
2022/07/12 07:22:12;;;;;;;4.68;4.20;;;19.50;99.90;;;;;;5009286;28;20048;-86
2022/07/12 07:24:42;;;;;;;4.78;3.85;;;19.10;99.90;;;;;;5032469;28;20044;-87
2022/07/12 07:27:08;;;;;;;4.90;4.25;;;19.70;99.90;;;;;;5031560;28;20040;-87
2022/07/12 07:32:24;;;;;;;4.90;4.40;;;19.80;99.90;;;;;;5043007;28;20126;-87
2022/07/12 07:34:50;;;;;;;4.72;4.13;;;19.90;99.90;;;;;;5023605;28;20044;-86
2022/07/12 07:37:20;;;;;;;4.95;4.30;;;19.90;99.90;;;;;;5037776;28;20056;-86
2022/07/12 07:39:46;;;;;;;5.00;4.30;;;19.90;99.90;;;;;;5010914;28;20098;-84
2022/07/12 07:42:12;;;;;;;5.50;4.53;;;20.10;99.90;;;;;;5009266;28;20084;-85
2022/07/12 07:44:38;;;;;;;4.43;3.80;;;20.10;99.90;;;;;;5026818;28;20071;-86
2022/07/12 07:47:04;;;;;;;5.55;3.70;;;20.30;99.90;;;;;;5017345;28;20569;-85
2022/07/12 07:49:29;;;;;;;3.78;3.35;;;20.50;99.90;;;;;;5002562;28;20048;-86
2022/07/12 07:51:58;;;;;;;4.03;3.13;;;20.80;99.90;;;;;;5015642;28;20044;-84
2022/07/12 07:54:24;;;;;;;4.97;3.60;;;21.00;99.90;;;;;;5029125;28;20075;-84
2022/07/12 07:56:49;;;;;;;4.32;3.70;;;21.20;99.90;;;;;;5030825;28;20057;-84
2022/07/12 07:59:15;;;;;;;3.38;3.03;;;21.50;99.90;;;;;;5013248;28;20136;-84
2022/07/12 08:01:52;;;;;;;4.22;3.33;;;21.60;99.90;;;;;;5044169;28;20068;-85
2022/07/12 08:04:19;;;;;;;3.88;3.38;;;21.90;99.90;;;;;;5029292;28;20084;-85
2022/07/12 08:06:46;;;;;;;4.03;3.08;;;22.10;99.90;;;;;;5029900;28;20127;-85
2022/07/12 08:09:12;;;;;;;3.90;3.50;;;22.30;99.90;;;;;;5012659;28;20088;-87
2022/07/12 08:11:42;;;;;;;4.07;3.65;;;22.50;99.90;;;;;;5050913;28;20053;-80
2022/07/12 08:14:09;;;;;;;4.95;3.10;;;22.70;99.90;;;;;;5026818;28;20041;-80
2022/07/12 08:16:35;;;;;;;3.58;2.97;;;22.80;99.90;;;;;;5027349;28;20051;-80
2022/07/12 08:19:01;;;;;;;3.53;3.22;;;22.90;99.90;;;;;;5042871;28;20342;-79
2022/07/12 08:21:27;;;;;;;4.07;3.45;;;23.10;99.90;;;;;;4996053;28;20483;-80
2022/07/12 08:23:53;;;;;;;3.90;3.38;;;23.10;99.90;;;;;;5010211;28;20044;-79
2022/07/12 08:26:19;;;;;;;3.17;2.88;;;23.30;99.90;;;;;;5027398;28;20048;-79
2022/07/12 08:28:45;;;;;;;3.88;3.03;;;23.50;99.90;;;;;;5026595;28;20131;-80
2022/07/12 08:31:14;;;;;;;4.22;3.30;;;23.80;99.90;;;;;;5018620;28;20060;-80
2022/07/12 08:33:41;;;;;;;4.32;3.13;;;23.80;99.90;;;;;;5018981;28;20083;-80
2022/07/12 08:36:08;;;;;;;4.65;3.00;;;23.90;99.90;;;;;;5041695;28;20045;-83
2022/07/12 08:38:36;;;;;;;2.97;2.67;;;24.10;99.90;;;;;;5025068;28;20131;-81
2022/07/12 08:41:03;;;;;;;6.55;2.40;;;24.30;99.90;;;;;;5024514;28;20052;-81
2022/07/12 08:43:29;;;;;;;2.85;2.40;;;24.50;99.90;;;;;;5014920;28;20040;-81
2022/07/12 08:45:55;;;;;;;3.67;2.55;;;24.70;99.90;;;;;;5003096;28;20114;-81
2022/07/12 08:48:21;;;;;;;3.28;2.30;;;24.80;99.90;;;;;;5022755;28;20056;-80
2022/07/12 08:51:04;;;;;;;2.80;2.40;;;24.80;99.90;;;;;;5007517;28;20047;-82
2022/07/12 08:53:31;;;;;;;2.60;2.40;;;24.90;99.90;;;;;;5042028;28;20053;-82
2022/07/12 08:55:57;;;;;;;3.03;2.60;;;24.90;99.90;;;;;;5027301;28;20044;-81
2022/07/12 08:58:22;;;;;;;3.55;2.75;;;24.90;99.90;;;;;;5027645;28;20110;-81
2022/07/12 09:00:48;;;;;;;3.28;2.72;;;24.70;99.90;;;;;;5034632;28;20052;-83
2022/07/12 09:03:14;;;;;;;3.67;2.80;;;25.00;99.90;;;;;;5027117;28;20084;-84
2022/07/12 09:05:52;;;;;;;3.58;2.83;;;25.10;99.90;;;;;;5044679;28;20071;-80
2022/07/12 09:08:24;;;;;;;3.03;2.55;;;25.20;99.90;;;;;;5024922;28;20075;-81
2022/07/12 09:10:50;;;;;;;3.38;3.08;;;25.20;99.90;;;;;;5010953;28;20053;-81
2022/07/12 09:13:16;;;;;;;4.25;3.08;;;25.30;99.90;;;;;;5026091;28;20063;-81
2022/07/12 09:15:42;;;;;;;4.15;2.85;;;25.50;99.90;;;;;;5016526;28;20042;-84
2022/07/12 09:18:13;;;;;;;3.25;2.92;;;25.70;99.90;;;;;;5028547;28;20164;-81
2022/07/12 09:20:39;;;;;;;4.03;3.58;;;25.90;99.90;;;;;;5020175;28;20488;-82
2022/07/12 09:23:10;;;;;;;5.22;3.17;;;26.00;99.90;;;;;;5026057;28;20149;-80
2022/07/12 09:25:38;;;;;;;4.68;3.63;;;26.20;99.90;;;;;;5041818;28;20116;-80
2022/07/12 09:28:06;;;;;;;3.38;3.00;;;26.20;99.90;;;;;;5028988;28;20052;-80
2022/07/12 09:30:33;;;;;;;3.95;3.38;;;26.40;99.90;;;;;;5040949;28;20063;-81
2022/07/12 09:36:07;;;;;;;4.22;3.15;;;26.70;99.90;;;;;;5041021;28;20454;-81
2022/07/12 09:38:38;;;;;;;4.63;3.40;;;27.50;99.90;;;;;;5040924;28;20111;-81
2022/07/12 09:41:10;;;;;;;4.28;3.58;;;27.20;99.90;;;;;;5037658;28;20056;-80
2022/07/12 09:43:36;;;;;;;6.00;3.70;;;27.20;99.90;;;;;;5041738;28;20041;-82
2022/07/12 09:46:02;;;;;;;3.72;3.30;;;27.30;99.90;;;;;;5042044;28;20044;-81
2022/07/12 09:48:29;;;;;;;7.03;4.68;;;27.30;99.90;;;;;;4993635;28;20048;-82
2022/07/12 09:50:57;;;;;;;3.97;3.58;;;27.40;99.90;;;;;;5023903;28;20086;-81
2022/07/12 09:53:38;;;;;;;4.03;3.63;;;27.50;99.90;;;;;;5015189;28;20049;-81
2022/07/12 09:56:06;;;;;;;4.95;3.60;;;27.50;99.90;;;;;;5026042;28;20036;-80
2022/07/12 09:58:52;;;;;;;4.50;4.10;;;27.60;99.90;;;;;;5032093;28;20114;-82
2022/07/12 10:01:20;;;;;;;4.40;3.92;;;27.60;99.90;;;;;;5042121;28;20092;-83
2022/07/12 10:03:48;;;;;;;4.30;3.45;;;27.50;99.90;;;;;;5041377;28;20041;-82
2022/07/12 10:06:22;;;;;;;5.15;4.20;;;27.50;99.90;;;;;;5040212;28;20161;-81
2022/07/12 10:08:48;;;;;;;4.95;4.50;;;27.40;99.90;;;;;;5026693;28;20094;-82
2022/07/12 10:11:14;;;;;;;4.93;4.35;;;27.50;99.90;;;;;;5010658;28;20044;-82
2022/07/12 10:13:40;;;;;;;4.93;3.92;;;27.50;99.90;;;;;;5007416;28;20056;-82
2022/07/12 10:16:10;;;;;;;4.40;3.80;;;27.60;99.90;;;;;;5024404;28;20441;-83
2022/07/12 10:18:39;;;;;;;6.45;4.18;;;27.40;99.90;;;;;;5041162;28;20040;-82
2022/07/12 10:21:23;;;;;;;6.72;4.00;;;27.80;99.90;;;;;;5028504;28;20063;-82
2022/07/12 10:23:49;;;;;;;4.45;4.05;;;28.00;99.90;;;;;;5041162;28;20041;-82
2022/07/12 10:26:15;;;;;;;5.90;4.25;;;28.10;99.90;;;;;;5011297;28;20476;-83
2022/07/12 10:28:59;;;;;;;5.97;4.25;;;28.20;99.90;;;;;;5022943;28;20084;-80
2022/07/12 10:31:28;;;;;;;4.63;4.22;;;28.30;99.90;;;;;;5026431;28;20046;-82
2022/07/12 10:34:08;;;;;;;4.43;3.97;;;28.40;99.90;;;;;;5017361;28;20128;-83
2022/07/12 10:36:55;;;;;;;5.15;4.65;;;28.60;99.90;;;;;;5014388;28;22247;-82
2022/07/12 10:39:26;;;;;;;5.55;4.43;;;28.80;99.90;;;;;;5026969;28;20048;-83
2022/07/12 10:42:05;;;;;;;5.32;4.82;;;28.70;99.90;;;;;;5007132;28;20056;-83
2022/07/12 10:44:43;;;;;;;5.15;4.28;;;28.80;99.90;;;;;;5041726;28;20099;-82
2022/07/12 10:47:12;;;;;;;6.28;4.70;;;28.90;99.90;;;;;;5031003;28;20072;-82
2022/07/12 10:49:46;;;;;;;5.22;4.70;;;29.00;99.90;;;;;;5006814;28;20056;-82
2022/07/12 10:52:11;;;;;;;6.30;5.55;;;29.10;99.90;;;;;;5025278;28;20507;-84
2022/07/12 10:54:38;;;;;;;6.28;5.45;;;29.20;99.90;;;;;;5028350;28;20094;-82
2022/07/12 10:57:04;;;;;;;5.97;5.20;;;29.10;99.90;;;;;;5024648;28;20063;-82
2022/07/12 10:59:35;;;;;;;6.53;5.22;;;29.20;99.90;;;;;;5024755;28;20140;-81
2022/07/12 11:02:01;;;;;;;6.82;6.10;;;29.30;99.90;;;;;;5023523;28;20518;-80
2022/07/12 11:04:27;;;;;;;9.13;6.22;;;29.40;99.90;;;;;;5026055;28;20048;-81
2022/07/12 11:06:58;;;;;;;7.47;6.63;;;29.60;99.90;;;;;;5009526;28;20509;-84
2022/07/12 11:09:25;;;;;;;6.68;5.97;;;29.80;99.70;;;;;;5025641;28;20487;-81
2022/07/12 11:11:52;;;;;;;7.32;6.07;;;29.70;99.70;;;;;;5024029;28;20064;-82
2022/07/12 11:14:23;;;;;;;6.07;5.40;;;29.80;99.70;;;;;;5022141;28;20124;-82
2022/07/12 11:16:51;;;;;;;6.75;6.05;;;30.10;99.80;;;;;;4998092;28;20063;-82
2022/07/12 11:19:24;;;;;;;7.38;5.40;;;30.10;99.40;;;;;;5023818;28;20131;-82
2022/07/12 11:21:55;;;;;;;8.77;5.35;;;30.00;99.30;;;;;;5042101;28;20044;-82
2022/07/12 11:24:30;;;;;;;7.38;6.68;;;29.90;99.60;;;;;;5009307;28;20049;-82
2022/07/12 11:26:56;;;;;;;7.05;6.45;;;29.80;99.20;;;;;;5023835;28;20083;-82
2022/07/12 11:29:22;;;;;;;7.97;7.13;;;29.80;99.50;;;;;;5009106;28;20160;-81
2022/07/12 11:31:49;;;;;;;9.52;7.32;;;29.80;99.40;;;;;;5022074;28;20120;-81
2022/07/12 11:34:21;;;;;;;7.70;6.90;;;29.80;99.00;;;;;;5042799;28;20053;-82
2022/07/12 11:36:50;;;;;;;8.30;7.60;;;30.00;99.20;;;;;;5038959;28;20032;-81
2022/07/12 11:39:16;;;;;;;7.45;6.75;;;30.00;98.80;;;;;;5024358;28;20075;-81
2022/07/12 11:41:55;;;;;;;7.88;7.18;;;30.10;98.70;;;;;;5022622;28;20053;-81
2022/07/12 11:44:21;;;;;;;8.05;7.25;;;30.20;98.40;;;;;;5019258;28;20044;-82
2022/07/12 11:46:52;;;;;;;8.32;6.30;;;30.20;98.40;;;;;;5027001;28;20041;-82
2022/07/12 11:49:18;;;;;;;7.75;6.70;;;30.30;97.90;;;;;;5024879;28;20103;-81
2022/07/12 11:51:45;;;;;;;6.57;5.95;;;30.20;97.90;;;;;;5006684;28;20045;-82
2022/07/12 11:54:11;;;;;;;7.82;7.00;;;30.10;98.00;;;;;;5023500;28;20056;-82
2022/07/12 11:56:37;;;;;;;10.43;6.50;;;29.80;98.10;;;;;;5009631;28;20098;-81
2022/07/12 11:59:03;;;;;;;7.28;6.22;;;29.70;98.10;;;;;;5005716;28;20498;-81
2022/07/12 12:01:28;;;;;;;5.85;5.22;;;29.60;98.50;;;;;;5025809;28;20056;-81
2022/07/12 12:03:56;;;;;;;5.72;5.13;;;29.50;98.80;;;;;;5007388;28;20080;-81
2022/07/12 12:06:22;;;;;;;5.55;4.78;;;29.50;98.90;;;;;;5007539;28;20098;-82
2022/07/12 12:08:50;;;;;;;7.63;5.70;;;29.60;99.20;;;;;;5022911;28;20041;-81
2022/07/12 12:11:16;;;;;;;5.72;4.93;;;29.70;98.70;;;;;;5048928;28;20554;-82
2022/07/12 12:13:42;;;;;;;5.93;5.32;;;29.70;98.60;;;;;;5024820;28;20045;-82
2022/07/12 12:16:11;;;;;;;7.63;5.22;;;29.80;98.50;;;;;;5005853;28;20098;-81
2022/07/12 12:18:38;;;;;;;6.45;5.30;;;29.60;98.20;;;;;;5041794;28;20053;-81
2022/07/12 12:21:05;;;;;;;6.65;5.28;;;29.60;98.40;;;;;;5040772;28;20041;-81
2022/07/12 12:23:32;;;;;;;5.57;4.75;;;29.40;98.50;;;;;;5022998;28;20052;-81
2022/07/12 12:26:17;;;;;;;7.10;5.80;;;29.20;98.80;;;;;;5022595;28;20055;-82
2022/07/12 12:28:51;;;;;;;6.50;5.90;;;28.90;98.10;;;;;;5030910;28;20131;-81
2022/07/12 12:31:19;;;;;;;6.38;5.78;;;28.60;99.00;;;;;;5025701;28;20495;-81
2022/07/12 12:33:51;;;;;;;7.70;6.13;;;28.50;99.50;;;;;;5020949;28;20166;-81
2022/07/12 12:36:18;;;;;;;8.48;5.07;;;28.30;99.70;;;;;;5022072;28;20048;-82
2022/07/12 12:38:45;;;;;;;7.15;5.85;;;28.20;99.90;;;;;;5027105;28;20049;-81
2022/07/12 12:41:12;;;;;;;7.55;5.72;;;28.10;99.90;;;;;;5004286;28;20074;-83
2022/07/12 12:43:38;;;;;;;6.38;5.18;;;28.00;99.90;;;;;;5022111;28;20071;-82
2022/07/12 12:46:04;;;;;;;7.10;5.93;;;28.00;99.90;;;;;;5023324;28;20040;-82
2022/07/12 12:48:31;;;;;;;6.22;5.40;;;27.90;99.90;;;;;;5028272;28;20052;-83
2022/07/12 12:51:09;;;;;;;5.88;4.82;;;27.80;99.90;;;;;;5025022;28;20044;-82
2022/07/12 12:53:39;;;;;;;5.97;5.38;;;27.70;99.90;;;;;;5029740;28;20198;-81
2022/07/12 12:56:11;;;;;;;4.97;4.30;;;27.60;99.90;;;;;;5025782;28;20201;-82
2022/07/12 12:58:37;;;;;;;5.75;4.45;;;27.70;99.90;;;;;;5037721;28;20196;-82